KMBO

Bruce Campbell Field Airport

Madison, Mississippi, USA
METAR KMBO 221515Z AUTO 00000KT 10SM SCT018 27/22 A3006 RMK AO2 PWINO
Observed Flight Rules
May-22 @ 15:15 UTC (18 minutes ago) Visual Flight Rules
Visibility Clouds
10 miles
  • Scattered at 1,800' AGL
Temperatures Readings
Current 27°C / 81°F
Dewpoint 22°C / 72°F
Humidity 74%
Altimeter 30.06" Hg
Pressure 1018 hPa
Elevation 99
METAR KMBO 221515Z AUTO 00000KT 10SM SCT018 27/22 A3006 RMK AO2 PWINO
Observed Flight Rules
May-22 @ 15:15 UTC
(18 minutes ago)
VFR
Clouds
  • Scattered at 1,800' AGL
Temperature Dewpoint
27°C / 81°F 22°C / 72°F
Humidity Altimeter Pressure
74% 30.06" Hg 1018 hPa